首页
METAR-TAF:

METAR-TAF

机场 :

皮阿尔科国际机场

西班牙港, 特立尼达岛, 千里達及托巴哥

纬度: 10-37N, 经度: 061-21W, 海拔: 12米

当前天气观测

该预报发布于1小时和5分钟前的16:00 UTC
风速12节,风向
温度 30°C
湿度 70%
气压 1012 hPa
能见度10公里或以上
少量云层高于1600英尺

METAR: TTPP 201600Z 09012KT 9999 FEW016 30/24 Q1012 NOSIG

时间: 13:05 (17:05 UTC)

预报

该预报发布于7小时和5分钟前的10:00 UTC
预报有效从20日的 12点(UTC)到 21日的 12点(UTC)
风速10节,风向东转东南
能见度10公里或以上
散云层高于1400英尺
散云层高于3800英尺
短暂存在
从 20日的 12点(UTC)到 20日的 20点(UTC)
能見度: 6000
少量云层高于1000英尺, 积雨云.
多云层高于1400英尺
阵雨
短暂存在
从 20日的 13点(UTC)到 20日的 18点(UTC)
能見度: 2000
散云层高于1000英尺, 积雨云.
雷暴, 雨
成为
从 20日的 23点(UTC)到 21日的 01点(UTC)
风速节,风向
少量云层高于1600英尺
几率 40% :
短暂存在
从 21日的 03点(UTC)到 21日的 12点(UTC)
能見度: 7000
多云层高于1400英尺
阵雨

TAF: TTPP 201000Z 2012/2112 12010KT 9999 SCT014 SCT038 TEMPO 2012/2020 6000 SHRA FEW010CB BKN014 TEMPO 2013/2018 2000 TSRA SCT010CB BECMG 2023/2101 00000KT FEW016 PROB40 TEMPO 2103/2112 7000 SHRA BKN014

超过4000个机场的气象观测和天气预报(METAR&TAF报告)。

可查询的气象台以黄色和红色小点在地图上表示。

将鼠标移到小点上方,可查看气象台名称。

然后点击查看天气观测和预报。

如需切换地图:点击带黑十字的绿色按钮放大地图;点击带横线的绿色按钮缩小地图;或者点击绿色箭头查看邻近地区的地图。


METAR-TAF: